Time;durP1;ratioP1;P1;durP2;ratioP2;P2;SDS_P1;SDS_P2;PMS_P1;PMS_P2;Temp;Humidity;BMP_temperature;BMP_pressure;BME280_temperature;BME280_humidity;BME280_pressure;Samples;Min_cycle;Max_cycle;Signal;HPM_P1;HPM_P2
2021/12/08 00:00:56;;;;;;;16.63;12.40;;;;;;;-0.49;100.00;95555.28;5061608;28;20513;-76
2021/12/08 00:03:28;;;;;;;19.47;12.50;;;;;;;-0.11;100.00;95614.09;5043827;28;20432;-76
2021/12/08 00:05:57;;;;;;;25.43;12.30;;;;;;;-0.29;100.00;95568.03;5077028;28;20420;-76
2021/12/08 00:08:27;;;;;;;14.30;11.67;;;;;;;-0.10;100.00;95588.91;5076119;28;20463;-75
2021/12/08 00:13:29;;;;;;;21.47;12.67;;;;;;;-0.39;100.00;95550.75;5102272;28;20435;-76
2021/12/08 00:16:00;;;;;;;14.87;12.00;;;;;;;-0.01;100.00;95593.19;5094140;28;20460;-75
2021/12/08 00:18:29;;;;;;;14.37;9.93;;;;;;;-0.18;100.00;95572.09;5076881;28;20831;-76
2021/12/08 00:20:59;;;;;;;13.07;10.60;;;;;;;-0.17;100.00;95558.03;5073518;28;20456;-75
2021/12/08 00:23:27;;;;;;;15.87;11.33;;;;;;;-0.02;100.00;95581.25;5075320;28;20432;-76
2021/12/08 00:25:55;;;;;;;12.80;10.90;;;;;;;-0.03;100.00;95577.13;5073256;28;20429;-75
2021/12/08 00:28:21;;;;;;;15.90;11.37;;;;;;;-0.29;100.00;95557.66;5078738;28;20428;-76
2021/12/08 00:30:51;;;;;;;15.83;11.03;;;;;;;-0.15;100.00;95568.16;5080466;28;20469;-76
2021/12/08 00:33:19;;;;;;;16.90;11.03;;;;;;;-0.24;100.00;95578.41;5079112;28;20873;-75
2021/12/08 00:35:48;;;;;;;15.90;10.17;;;;;;;-0.37;100.00;95551.25;5079590;28;20448;-76
2021/12/08 00:38:17;;;;;;;25.90;14.33;;;;;;;-0.34;100.00;95558.50;5114629;28;20527;-76
2021/12/08 00:40:45;;;;;;;18.77;13.40;;;;;;;-0.42;100.00;95547.94;5079692;28;20409;-76
2021/12/08 00:43:14;;;;;;;17.13;12.70;;;;;;;-0.37;100.00;95546.06;5065907;28;20478;-76
2021/12/08 00:45:41;;;;;;;15.27;10.73;;;;;;;-0.78;100.00;95500.81;5058674;28;20456;-75
2021/12/08 00:48:08;;;;;;;11.83;9.47;;;;;;;-0.57;100.00;95532.50;5073163;28;20440;-76
2021/12/08 00:50:38;;;;;;;13.13;10.90;;;;;;;-0.57;100.00;95532.50;5071863;28;20919;-76
2021/12/08 00:53:05;;;;;;;13.33;11.23;;;;;;;-0.73;100.00;95517.09;5074365;28;20471;-75
2021/12/08 00:55:32;;;;;;;14.43;10.10;;;;;;;-0.82;100.00;95515.34;5071754;28;20494;-77
2021/12/08 00:57:59;;;;;;;12.50;8.97;;;;;;;-0.83;100.00;95519.00;5073060;28;20463;-76
2021/12/08 01:00:30;;;;;;;15.57;10.63;;;;;;;-0.54;100.00;95555.31;5073826;28;20436;-75
2021/12/08 01:02:58;;;;;;;19.87;9.40;;;;;;;-0.60;100.00;95547.59;5072740;28;20448;-75
2021/12/08 01:05:30;;;;;;;11.27;8.80;;;;;;;-0.52;100.00;95572.19;5072185;28;20444;-76
2021/12/08 01:07:57;;;;;;;11.40;9.00;;;;;;;-0.47;100.00;95579.91;5059594;28;20482;-76
2021/12/08 01:10:27;;;;;;;12.83;8.40;;;;;;;-0.54;100.00;95555.31;5089407;28;20472;-75
2021/12/08 01:13:08;;;;;;;10.27;8.67;;;;;;;-0.34;100.00;95596.66;5091579;28;20498;-77
2021/12/08 01:15:37;;;;;;;10.43;7.20;;;;;;;-0.61;100.00;95555.66;5057564;28;20459;-77
2021/12/08 01:18:04;;;;;;;11.10;9.27;;;;;;;-0.52;100.00;95572.19;5091832;28;20448;-77
2021/12/08 01:20:31;;;;;;;9.67;8.10;;;;;;;-0.55;100.00;95584.91;5082352;28;20463;-77
2021/12/08 01:22:58;;;;;;;8.50;7.60;;;;;;;-0.83;100.00;95542.34;5093093;28;20971;-75
2021/12/08 01:25:25;;;;;;;10.43;9.20;;;;;;;-0.85;100.00;95547.03;5076612;28;20436;-76
2021/12/08 01:27:52;;;;;;;14.07;9.37;;;;;;;-0.99;100.00;95524.31;5095245;28;20424;-75
2021/12/08 01:30:19;;;;;;;15.10;9.40;;;;;;;-0.82;100.00;95547.25;5105835;28;20468;-76
2021/12/08 01:32:45;;;;;;;11.63;10.43;;;;;;;-0.85;100.00;95541.84;5055482;28;20468;-76
2021/12/08 01:35:12;;;;;;;13.47;10.30;;;;;;;-0.93;100.00;95531.03;5073415;28;20432;-77
2021/12/08 01:37:40;;;;;;;9.83;8.63;;;;;;;-0.90;100.00;95546.03;5074254;28;20425;-77
2021/12/08 01:40:09;;;;;;;12.17;9.03;;;;;;;-0.91;100.00;95538.53;5054820;28;20448;-75
2021/12/08 01:42:43;;;;;;;15.67;10.67;;;;;;;-1.13;100.00;95502.66;5071143;28;20967;-76
2021/12/08 01:47:58;;;;;;;14.47;10.00;;;;;;;-0.97;100.00;95519.63;5073306;28;20420;-76
2021/12/08 01:50:25;;;;;;;15.07;11.50;;;;;;;-1.00;100.00;95512.41;5072465;28;20464;-77
2021/12/08 01:52:52;;;;;;;15.83;9.57;;;;;;;-0.99;100.00;95503.56;5070548;28;20467;-75
2021/12/08 01:55:19;;;;;;;14.30;10.37;;;;;;;-1.19;100.00;95475.22;5053904;28;20451;-76
2021/12/08 01:57:46;;;;;;;11.50;8.37;;;;;;;-1.05;100.00;95504.66;5090578;28;20859;-77
2021/12/08 02:00:28;;;;;;;15.60;9.70;;;;;;;-1.09;100.00;95503.66;5057318;28;20444;-77
2021/12/08 02:02:58;;;;;;;19.93;9.00;;;;;;;-1.21;100.00;95483.25;5074995;28;20582;-77
2021/12/08 02:05:26;;;;;;;10.17;8.37;;;;;;;-1.24;100.00;95507.13;5090255;28;20493;-76
2021/12/08 02:07:54;;;;;;;8.47;7.67;;;;;;;-1.16;100.00;95484.28;5086964;28;20530;-75
2021/12/08 02:10:21;;;;;;;12.13;8.83;;;;;;;-1.38;100.00;95462.13;5069846;28;20459;-76
2021/12/08 02:12:48;;;;;;;9.73;7.07;;;;;;;-1.13;100.00;95494.09;5086802;28;20456;-75
2021/12/08 02:15:17;;;;;;;14.03;7.93;;;;;;;-1.22;100.00;95478.34;5088303;28;20440;-77
2021/12/08 02:17:47;;;;;;;10.43;8.20;;;;;;;-1.60;100.00;95426.31;5055353;28;21038;-77
2021/12/08 02:20:15;;;;;;;11.37;6.37;;;;;;;-1.18;100.00;95458.63;5054939;28;20432;-77
2021/12/08 02:22:42;;;;;;;10.13;7.23;;;;;;;-1.21;100.00;95453.97;5072808;28;20452;-77
2021/12/08 02:25:18;;;;;;;14.33;8.07;;;;;;;-1.35;100.00;95440.09;5072125;28;20835;-77
2021/12/08 02:27:45;;;;;;;6.93;5.97;;;;;;;-1.14;100.00;95477.75;5074401;28;20408;-77
2021/12/08 02:30:28;;;;;;;8.10;6.80;;;;;;;-1.31;100.00;95439.28;5093406;28;20471;-77
2021/12/08 02:46:48;;;;;;;9.73;7.00;;;;;;;-1.63;100.00;95374.22;5073658;28;20420;-76
2021/12/08 02:49:17;;;;;;;15.13;7.30;;;;;;;-1.18;100.00;95439.69;5076586;28;20482;-77
2021/12/08 02:51:45;;;;;;;8.37;7.53;;;;;;;-1.22;100.00;95445.41;5077920;28;20499;-77
2021/12/08 02:54:12;;;;;;;10.83;7.03;;;;;;;-1.44;100.00;95413.22;5077819;28;20472;-77
2021/12/08 02:56:39;;;;;;;8.80;7.40;;;;;;;-1.20;100.00;95424.41;5056768;28;20509;-76
2021/12/08 02:59:06;;;;;;;7.63;6.83;;;;;;;-1.13;100.00;95427.44;5053149;28;20877;-76
2021/12/08 03:01:35;;;;;;;10.47;6.57;;;;;;;-1.18;100.00;95398.22;5086585;28;20529;-75
2021/12/08 03:04:02;;;;;;;8.23;5.23;;;;;;;-1.10;100.00;95406.16;5073084;28;20475;-76
2021/12/08 03:06:29;;;;;;;10.33;7.53;;;;;;;-1.00;100.00;95429.41;5091375;28;20860;-76
2021/12/08 03:08:55;;;;;;;5.40;4.90;;;;;;;-1.15;100.00;95398.44;5073492;28;20460;-75
2021/12/08 03:11:22;;;;;;;8.20;5.83;;;;;;;-1.22;100.00;95385.78;5074612;28;20510;-77
2021/12/08 03:14:11;;;;;;;6.63;5.30;;;;;;;-0.95;100.00;95426.75;5042822;28;20440;-75
2021/12/08 03:16:42;;;;;;;7.37;5.50;;;;;;;-1.12;100.00;95394.50;5075969;28;20421;-77
2021/12/08 03:19:09;;;;;;;7.83;5.20;;;;;;;-0.89;100.00;95427.47;5044090;28;20436;-76
2021/12/08 03:21:37;;;;;;;7.00;5.77;;;;;;;-0.80;100.00;95428.44;5073755;28;20510;-77
2021/12/08 03:29:41;;;;;;;7.30;5.70;;;;;;;-0.92;100.00;95433.22;5059468;28;20452;-78
2021/12/08 03:32:13;;;;;;;5.33;4.83;;;;;;;-0.90;100.00;95437.09;5062712;28;20440;-77
2021/12/08 03:34:51;;;;;;;6.50;5.40;;;;;;;-0.85;100.00;95445.84;5058150;28;20471;-75
2021/12/08 03:37:22;;;;;;;10.67;4.67;;;;;;;-0.73;100.00;95447.03;5060889;28;20951;-77
2021/12/08 03:39:50;;;;;;;6.97;4.47;;;;;;;-0.80;100.00;95431.03;5078095;28;20485;-75
2021/12/08 03:42:24;;;;;;;6.60;5.10;;;;;;;-1.20;100.00;95370.75;5039404;28;20987;-73
2021/12/08 03:44:54;;;;;;;6.20;5.60;;;;;;;-1.22;100.00;95397.97;5062240;28;20428;-73
2021/12/08 03:47:26;;;;;;;7.03;5.50;;;;;;;-1.05;100.00;95397.56;5056351;28;20486;-75
2021/12/08 03:49:57;;;;;;;7.83;5.30;;;;;;;-1.11;100.00;95399.41;5073714;28;20900;-76
2021/12/08 03:52:24;;;;;;;9.37;8.10;;;;;;;-1.19;100.00;95397.44;5076896;28;20476;-77
2021/12/08 03:54:51;;;;;;;12.00;7.97;;;;;;;-0.96;100.00;95417.41;5058725;28;20440;-77
2021/12/08 03:57:18;;;;;;;6.80;5.40;;;;;;;-1.12;100.00;95397.88;5075579;28;20436;-76
2021/12/08 03:59:45;;;;;;;7.43;4.97;;;;;;;-1.05;100.00;95413.13;5073557;28;20868;-75
2021/12/08 04:02:11;;;;;;;7.50;4.87;;;;;;;-0.98;100.00;95419.53;5076783;28;21285;-77
2021/12/08 04:04:46;;;;;;;6.27;4.83;;;;;;;-1.24;100.00;95394.88;5039846;28;20448;-76
2021/12/08 04:07:15;;;;;;;5.63;5.10;;;;;;;-1.27;100.00;95398.81;5072036;28;20439;-76
2021/12/08 04:09:44;;;;;;;5.83;5.07;;;;;;;-1.09;100.00;95430.25;5058490;28;20486;-77
2021/12/08 04:12:15;;;;;;;6.83;4.50;;;;;;;-1.07;100.00;95426.38;5078641;28;20456;-76
2021/12/08 04:15:04;;;;;;;5.40;4.90;;;;;;;-1.08;100.00;95431.81;5055439;28;21135;-76
2021/12/08 04:17:39;;;;;;;7.80;4.33;;;;;;;-0.99;100.00;95443.13;5041617;28;20985;-75
2021/12/08 04:20:12;;;;;;;5.17;4.63;;;;;;;-1.03;100.00;95437.72;5076884;28;20416;-77
2021/12/08 04:22:43;;;;;;;6.53;5.93;;;;;;;-1.27;100.00;95401.38;5057454;28;20460;-75
2021/12/08 04:25:15;;;;;;;4.80;4.17;;;;;;;-1.22;100.00;95400.56;5071897;28;20468;-76
2021/12/08 04:27:43;;;;;;;13.23;4.90;;;;;;;-1.28;100.00;95412.03;5071868;28;20432;-76
2021/12/08 04:30:30;;;;;;;7.87;5.40;;;;;;;-1.21;100.00;95399.50;5055676;28;20460;-76
2021/12/08 04:32:57;;;;;;;8.43;5.73;;;;;;;-0.82;100.00;95434.91;5054880;28;20475;-76
2021/12/08 04:35:25;;;;;;;8.47;5.40;;;;;;;-1.09;100.00;95407.69;5059744;28;20873;-78
2021/12/08 04:37:56;;;;;;;7.70;6.27;;;;;;;-1.09;100.00;95406.91;5073594;28;20437;-76
2021/12/08 04:40:35;;;;;;;6.70;6.00;;;;;;;-0.88;100.00;95436.81;5072830;28;20409;-76
2021/12/08 04:43:25;;;;;;;7.70;6.00;;;;;;;-0.91;100.00;95437.38;5071924;28;20546;-76
2021/12/08 04:46:18;;;;;;;6.83;4.90;;;;;;;-0.83;100.00;95446.34;5055561;28;20428;-76
2021/12/08 04:51:41;;;;;;;10.00;6.10;;;;;;;-1.12;100.00;95412.66;5058889;28;20472;-78
2021/12/08 05:08:13;;;;;;;8.73;6.50;;;;;;;-0.96;100.00;95435.56;5056219;28;20432;-76
2021/12/08 05:10:44;;;;;;;6.53;5.93;;;;;;;-1.04;100.00;95431.00;5040404;28;20504;-78
2021/12/08 05:13:15;;;;;;;9.40;5.40;;;;;;;-0.92;100.00;95444.38;5039620;28;20437;-77
2021/12/08 05:16:02;;;;;;;10.30;6.10;;;;;;;-1.23;100.00;95415.34;5081114;28;20416;-76
2021/12/08 05:18:35;;;;;;;5.87;4.90;;;;;;;-1.14;100.00;95428.50;5071945;28;20477;-75
2021/12/08 05:21:07;;;;;;;6.53;6.00;;;;;;;-1.22;100.00;95416.88;5072079;28;20486;-77
2021/12/08 05:23:48;;;;;;;6.73;6.10;;;;;;;-0.99;100.00;95435.34;5054678;28;20451;-78
2021/12/08 05:26:24;;;;;;;12.13;6.67;;;;;;;-0.92;100.00;95459.94;5039735;28;20473;-78
2021/12/08 05:28:53;;;;;;;9.47;6.00;;;;;;;-1.39;100.00;95384.66;5072157;28;20920;-79
2021/12/08 05:31:26;;;;;;;12.03;6.37;;;;;;;-0.88;100.00;95460.16;5055806;28;20848;-78
2021/12/08 05:33:54;;;;;;;6.90;6.17;;;;;;;-0.91;100.00;95458.88;5054100;28;20450;-71
2021/12/08 05:36:22;;;;;;;8.00;7.17;;;;;;;-1.23;100.00;95411.97;5070455;28;20485;-71
2021/12/08 05:38:52;;;;;;;9.33;7.80;;;;;;;-1.06;100.00;95447.88;5070243;28;20444;-70
2021/12/08 05:41:26;;;;;;;9.20;5.43;;;;;;;-0.87;100.00;95460.94;5071529;28;20448;-70
2021/12/08 05:43:54;;;;;;;11.70;7.30;;;;;;;-0.92;100.00;95453.97;5053966;28;20416;-70
2021/12/08 05:46:25;;;;;;;9.07;6.17;;;;;;;-0.96;100.00;95451.13;5053446;28;20935;-70
2021/12/08 05:48:53;;;;;;;6.80;5.77;;;;;;;-1.07;100.00;95439.34;5037076;28;20447;-70
2021/12/08 05:51:31;;;;;;;8.10;7.07;;;;;;;-0.95;100.00;95455.28;5053881;28;20495;-70
2021/12/08 05:54:04;;;;;;;12.70;7.60;;;;;;;-0.99;100.00;95449.09;5070183;28;20911;-70
2021/12/08 05:56:32;;;;;;;16.13;9.83;;;;;;;-1.10;100.00;95441.69;5054045;28;20819;-70
2021/12/08 05:59:02;;;;;;;13.70;9.47;;;;;;;-1.07;100.00;95449.72;5053559;28;20855;-70
2021/12/08 06:01:33;;;;;;;13.07;9.80;;;;;;;-1.00;100.00;95441.59;5053189;28;20466;-71
2021/12/08 06:04:01;;;;;;;16.97;9.10;;;;;;;-1.19;100.00;95413.00;5053402;28;20498;-71
2021/12/08 06:06:29;;;;;;;10.73;6.87;;;;;;;-1.16;100.00;95419.44;5071382;28;20437;-70
2021/12/08 06:08:56;;;;;;;8.80;5.80;;;;;;;-1.15;100.00;95415.81;5071110;28;20478;-70
2021/12/08 06:11:26;;;;;;;7.67;6.50;;;;;;;-1.09;100.00;95414.69;5069866;28;20489;-70
2021/12/08 06:13:59;;;;;;;7.83;6.60;;;;;;;-1.01;100.00;95445.22;5071593;28;20431;-72
2021/12/08 06:16:31;;;;;;;9.70;6.40;;;;;;;-1.17;100.00;95418.69;5036688;28;20486;-72
2021/12/08 06:18:58;;;;;;;13.23;6.43;;;;;;;-1.07;100.00;95444.53;5053469;28;20803;-72
2021/12/08 06:21:28;;;;;;;8.20;5.53;;;;;;;-0.95;100.00;95444.91;5053184;28;20540;-73
2021/12/08 06:23:56;;;;;;;9.40;6.73;;;;;;;-0.92;100.00;95438.41;5069931;28;20440;-73
2021/12/08 06:26:25;;;;;;;9.03;6.90;;;;;;;-0.95;100.00;95436.34;5053431;28;20432;-72
2021/12/08 06:28:53;;;;;;;8.70;6.90;;;;;;;-1.01;100.00;95424.50;5070027;28;20811;-72
2021/12/08 06:31:22;;;;;;;9.03;6.90;;;;;;;-1.07;100.00;95435.94;5053046;28;20525;-71
2021/12/08 06:33:50;;;;;;;9.47;7.67;;;;;;;-1.09;100.00;95431.03;5071316;28;20439;-71
2021/12/08 06:36:32;;;;;;;8.33;7.03;;;;;;;-1.04;100.00;95427.63;5036668;28;20514;-70
2021/12/08 06:39:00;;;;;;;13.30;8.17;;;;;;;-1.01;100.00;95429.69;5054088;28;20439;-72
2021/12/08 06:41:34;;;;;;;10.97;7.00;;;;;;;-1.03;100.00;95416.22;5057197;28;20456;-72
2021/12/08 06:44:10;;;;;;;11.40;7.00;;;;;;;-0.91;100.00;95427.00;5075660;28;20839;-72
2021/12/08 06:46:43;;;;;;;8.77;6.37;;;;;;;-0.91;100.00;95417.38;5040967;28;20818;-72
2021/12/08 06:49:12;;;;;;;7.20;6.50;;;;;;;-0.96;100.00;95424.44;5040552;28;20456;-72
2021/12/08 06:51:44;;;;;;;10.37;8.00;;;;;;;-0.88;100.00;95434.22;5056694;28;20463;-73
2021/12/08 06:54:16;;;;;;;8.73;7.07;;;;;;;-0.89;100.00;95430.06;5073357;28;20432;-71
2021/12/08 06:56:50;;;;;;;12.80;6.67;;;;;;;-0.81;100.00;95447.63;5056910;28;20471;-72
2021/12/08 06:59:22;;;;;;;8.80;6.37;;;;;;;-0.64;100.00;95447.19;5040418;28;20464;-74
2021/12/08 07:02:06;;;;;;;10.70;6.57;;;;;;;-0.62;100.00;95447.69;5074835;28;20505;-74
2021/12/08 07:04:57;;;;;;;9.83;7.43;;;;;;;-0.93;100.00;95416.88;5074922;28;20404;-74
2021/12/08 07:07:28;;;;;;;8.20;6.90;;;;;;;-0.74;100.00;95442.09;5040068;28;20424;-75
2021/12/08 07:10:03;;;;;;;7.20;6.50;;;;;;;-0.76;100.00;95431.25;5048526;28;20818;-75
2021/12/08 07:12:35;;;;;;;7.90;7.03;;;;;;;-0.78;100.00;95441.13;5074126;28;20994;-75
2021/12/08 07:15:15;;;;;;;11.43;7.67;;;;;;;-1.17;100.00;95395.34;5090589;28;21075;-75
2021/12/08 07:17:46;;;;;;;7.33;6.07;;;;;;;-0.86;100.00;95439.13;5057076;28;20428;-75
2021/12/08 07:20:41;;;;;;;7.27;6.33;;;;;;;-1.04;100.00;95412.06;5057746;28;20455;-75
2021/12/08 07:23:18;;;;;;;11.17;7.77;;;;;;;-1.24;100.00;95369.72;5074757;28;20459;-75
2021/12/08 07:25:48;;;;;;;10.40;6.90;;;;;;;-0.86;100.00;95423.56;5058182;28;20477;-76
2021/12/08 07:28:17;;;;;;;9.07;6.90;;;;;;;-0.77;100.00;95445.25;5073850;28;20459;-76
2021/12/08 07:30:58;;;;;;;8.23;6.37;;;;;;;-0.83;100.00;95426.38;5090936;28;20452;-75
2021/12/08 07:33:27;;;;;;;7.60;6.53;;;;;;;-0.80;100.00;95432.81;5073072;28;20425;-75
2021/12/08 07:35:59;;;;;;;9.90;7.47;;;;;;;-0.90;100.00;95425.94;5074191;28;20489;-75
2021/12/08 07:38:29;;;;;;;8.67;6.20;;;;;;;-0.98;100.00;95390.97;5057004;28;20565;-75
2021/12/08 07:41:11;;;;;;;11.23;6.70;;;;;;;-0.76;100.00;95413.84;5073713;28;20851;-75
2021/12/08 07:43:42;;;;;;;10.70;6.87;;;;;;;-0.68;100.00;95417.63;5057230;28;20506;-76
2021/12/08 07:46:18;;;;;;;10.70;7.07;;;;;;;-0.72;100.00;95414.06;5090276;28;20797;-75
2021/12/08 07:48:56;;;;;;;8.07;5.83;;;;;;;-0.62;100.00;95399.16;5074189;28;20446;-75
2021/12/08 07:51:28;;;;;;;8.60;5.60;;;;;;;-0.52;100.00;95408.66;5056280;28;20998;-75
2021/12/08 07:53:55;;;;;;;10.07;6.73;;;;;;;-0.69;100.00;95405.72;5089868;28;20481;-75
2021/12/08 07:56:24;;;;;;;7.30;5.97;;;;;;;-0.75;100.00;95381.66;5056195;28;20440;-75
2021/12/08 07:58:56;;;;;;;9.93;5.77;;;;;;;-0.77;100.00;95375.22;5072795;28;20962;-75
2021/12/08 08:01:28;;;;;;;11.53;7.33;;;;;;;-0.60;100.00;95398.88;5072511;28;20827;-75
2021/12/08 08:03:54;;;;;;;9.00;6.70;;;;;;;-0.55;100.00;95405.81;5072356;28;20432;-74
2021/12/08 08:06:28;;;;;;;6.60;5.93;;;;;;;-0.63;100.00;95407.22;5056220;28;20810;-74
2021/12/08 08:08:55;;;;;;;9.47;6.10;;;;;;;-0.74;100.00;95390.22;5056125;28;20478;-73
2021/12/08 08:11:32;;;;;;;10.70;6.50;;;;;;;-0.47;100.00;95420.78;5040046;28;21111;-73
2021/12/08 08:13:59;;;;;;;10.77;6.37;;;;;;;-0.50;100.00;95418.75;5072112;28;20409;-74
2021/12/08 08:16:33;;;;;;;7.80;6.30;;;;;;;-0.47;100.00;95418.19;5080497;28;20425;-74
2021/12/08 08:19:09;;;;;;;7.77;6.27;;;;;;;-0.51;100.00;95420.56;5080856;28;20419;-74
2021/12/08 08:21:41;;;;;;;9.33;6.67;;;;;;;-0.58;100.00;95421.94;5046401;28;20464;-74
2021/12/08 08:24:08;;;;;;;10.13;7.13;;;;;;;-0.66;100.00;95412.97;5073526;28;20904;-74
2021/12/08 08:26:38;;;;;;;9.23;6.20;;;;;;;-0.55;100.00;95418.78;5056196;28;20429;-75
2021/12/08 08:29:06;;;;;;;8.13;6.90;;;;;;;-0.70;100.00;95393.78;5055775;28;20444;-75
2021/12/08 08:31:40;;;;;;;10.43;6.70;;;;;;;-0.47;100.00;95426.75;5039393;28;20476;-75
2021/12/08 08:34:10;;;;;;;13.70;6.63;;;;;;;-0.51;100.00;95425.75;5055774;28;20422;-75
2021/12/08 08:36:42;;;;;;;8.93;6.53;;;;;;;-0.48;100.00;95420.00;5071482;28;21053;-71
2021/12/08 08:39:17;;;;;;;9.00;7.23;;;;;;;-0.41;100.00;95404.84;5038058;28;20428;-71
2021/12/08 08:41:59;;;;;;;7.70;6.90;;;;;;;-0.35;100.00;95410.78;5071645;28;20455;-74
2021/12/08 08:44:30;;;;;;;9.37;6.60;;;;;;;-0.43;100.00;95416.56;5038994;28;20908;-74
2021/12/08 08:47:00;;;;;;;7.53;6.73;;;;;;;-0.64;100.00;95393.47;5054657;28;20520;-74
2021/12/08 08:49:31;;;;;;;12.47;8.13;;;;;;;-0.53;100.00;95416.72;5037990;28;20472;-74
2021/12/08 08:52:22;;;;;;;12.40;7.93;;;;;;;-0.51;100.00;95420.56;5054897;28;20496;-75
2021/12/08 08:54:52;;;;;;;10.03;7.97;;;;;;;-0.57;100.00;95411.28;5046230;28;20440;-75
2021/12/08 08:57:25;;;;;;;8.50;7.63;;;;;;;-0.60;100.00;95411.84;5073472;28;20910;-75
2021/12/08 09:00:14;;;;;;;9.07;7.20;;;;;;;-0.73;100.00;95387.34;5038068;28;20920;-73
2021/12/08 09:02:46;;;;;;;10.47;8.00;;;;;;;-0.50;100.00;95410.97;5053501;28;20488;-73
2021/12/08 09:05:38;;;;;;;14.10;10.13;;;;;;;-0.61;100.00;95384.34;5054187;28;20446;-74
2021/12/08 09:08:14;;;;;;;16.17;8.60;;;;;;;-0.36;100.00;95417.03;5054367;28;20528;-74
2021/12/08 09:11:15;;;;;;;8.03;7.03;;;;;;;-0.44;100.00;95389.06;5084372;28;20477;-74
2021/12/08 09:13:48;;;;;;;11.27;9.23;;;;;;;-0.54;100.00;95376.22;5087776;28;20432;-75
2021/12/08 09:16:21;;;;;;;12.40;8.00;;;;;;;-0.47;100.00;95387.03;5072732;28;20463;-75
2021/12/08 09:18:58;;;;;;;13.10;9.33;;;;;;;-0.58;100.00;95368.22;5087847;28;20445;-75
2021/12/08 09:21:38;;;;;;;12.10;8.30;;;;;;;-0.49;100.00;95371.75;5070838;28;20506;-75
2021/12/08 09:24:12;;;;;;;11.40;8.57;;;;;;;-0.24;100.00;95419.97;5087756;28;20436;-74
2021/12/08 09:26:47;;;;;;;10.83;8.90;;;;;;;-0.22;100.00;95417.88;5070498;28;20953;-75
2021/12/08 09:29:23;;;;;;;11.43;7.50;;;;;;;-0.27;100.00;95417.16;5053849;28;20441;-74
2021/12/08 09:32:04;;;;;;;13.30;9.67;;;;;;;-0.44;100.00;95391.66;5071642;28;20529;-74
2021/12/08 09:34:44;;;;;;;17.87;8.37;;;;;;;-0.24;100.00;95409.59;5072299;28;20805;-74
2021/12/08 09:37:16;;;;;;;9.87;8.40;;;;;;;-0.38;100.00;95370.56;5072880;28;20428;-74
2021/12/08 09:39:47;;;;;;;14.17;9.40;;;;;;;-0.21;100.00;95387.47;5059959;28;20484;-75
2021/12/08 09:42:26;;;;;;;17.33;10.13;;;;;;;-0.24;100.00;95383.63;5071671;28;20573;-74
2021/12/08 09:44:59;;;;;;;21.30;14.57;;;;;;;-0.37;100.00;95379.13;5072681;28;20420;-74
2021/12/08 09:47:29;;;;;;;10.07;8.43;;;;;;;-0.47;100.00;95372.22;5070564;28;20847;-75
2021/12/08 09:49:58;;;;;;;17.53;8.00;;;;;;;-0.30;100.00;95388.09;5072351;28;20467;-75
2021/12/08 09:52:30;;;;;;;10.77;8.83;;;;;;;-0.26;100.00;95370.16;5070994;28;20471;-75
2021/12/08 09:54:59;;;;;;;10.73;8.90;;;;;;;-0.14;100.00;95378.28;5070472;28;20459;-75
2021/12/08 09:57:27;;;;;;;12.67;8.97;;;;;;;-0.62;100.00;95292.75;5054015;28;20482;-75
2021/12/08 09:59:55;;;;;;;11.60;8.50;;;;;;;-0.40;100.00;95341.53;5070422;28;20854;-75
2021/12/08 10:02:31;;;;;;;12.03;8.73;;;;;;;-0.22;100.00;95349.59;5070291;28;20452;-75
2021/12/08 10:05:16;;;;;;;12.53;8.87;;;;;;;-0.36;100.00;95355.47;5053927;28;20436;-75
2021/12/08 10:07:43;;;;;;;10.73;8.00;;;;;;;-0.38;100.00;95336.81;5053761;28;20531;-75
2021/12/08 10:10:14;;;;;;;14.10;9.27;;;;;;;-0.38;100.00;95317.88;5086884;28;20484;-74
2021/12/08 10:12:41;;;;;;;14.23;9.87;;;;;;;-0.13;100.00;95359.06;5071949;28;20496;-74
2021/12/08 10:15:17;;;;;;;12.70;8.63;;;;;;;-0.29;100.00;95326.53;5057836;28;20476;-75
2021/12/08 10:17:44;;;;;;;11.13;8.63;;;;;;;-0.23;100.00;95320.25;5074631;28;20416;-75
2021/12/08 10:20:24;;;;;;;9.87;7.90;;;;;;;0.02;100.00;95347.69;5075811;28;20914;-75
2021/12/08 10:23:13;;;;;;;9.03;7.90;;;;;;;0.08;100.00;95345.75;5074267;28;20493;-75
2021/12/08 10:25:54;;;;;;;11.67;8.40;;;;;;;-0.15;100.00;95298.81;5057163;28;20432;-75
2021/12/08 10:28:39;;;;;;;17.73;10.57;;;;;;;0.08;100.00;95330.16;5090767;28;20428;-74
2021/12/08 10:31:16;;;;;;;16.77;9.80;;;;;;;0.25;100.00;95327.81;5090579;28;20562;-75
2021/12/08 10:34:21;;;;;;;9.80;8.83;;;;;;;0.34;100.00;95315.72;5075512;28;20424;-75
2021/12/08 10:36:55;;;;;;;12.60;9.73;;;;;;;0.22;100.00;95333.56;5075002;28;20891;-74
2021/12/08 10:39:56;;;;;;;15.00;8.97;;;;;;;0.09;100.00;95308.31;5090638;28;20475;-74
2021/12/08 10:42:29;;;;;;;12.00;8.87;;;;;;;0.26;100.00;95343.13;5089319;28;20452;-74
2021/12/08 10:47:36;;;;;;;11.50;8.40;;;;;;;0.27;100.00;95333.53;5090619;28;20938;-75
2021/12/08 10:55:37;;;;;;;12.37;9.87;;;;;;;0.00;100.00;95292.63;5075036;28;20861;-74
2021/12/08 10:58:04;;;;;;;14.07;9.30;;;;;;;0.24;100.00;95298.44;5074750;28;20857;-74
2021/12/08 11:00:35;;;;;;;9.20;7.90;;;;;;;0.29;100.00;95315.81;5090239;28;20432;-72
2021/12/08 11:03:08;;;;;;;14.53;10.73;;;;;;;0.24;100.00;95311.44;5090396;28;20466;-72
2021/12/08 11:05:42;;;;;;;12.60;8.73;;;;;;;0.24;100.00;95295.84;5073081;28;20486;-72
2021/12/08 11:08:17;;;;;;;11.93;10.07;;;;;;;0.31;100.00;95282.50;5056503;28;20908;-73
2021/12/08 11:10:57;;;;;;;9.90;7.73;;;;;;;0.35;100.00;95288.66;5056387;28;20844;-72
2021/12/08 11:13:31;;;;;;;10.03;8.20;;;;;;;0.31;100.00;95287.69;5073172;28;20470;-72
2021/12/08 11:16:12;;;;;;;10.83;8.67;;;;;;;0.39;100.00;95275.84;5073072;28;20481;-73
2021/12/08 11:19:14;;;;;;;15.10;8.27;;;;;;;0.49;100.00;95281.66;5089871;28;20435;-72
2021/12/08 11:21:47;;;;;;;10.60;7.70;;;;;;;0.54;100.00;95281.56;5087405;28;20467;-74
2021/12/08 11:24:21;;;;;;;14.10;9.13;;;;;;;0.44;100.00;95289.53;5058117;28;20467;-74
2021/12/08 11:26:50;;;;;;;10.33;7.83;;;;;;;0.48;100.00;95282.72;5073383;28;20420;-72
2021/12/08 11:29:18;;;;;;;11.70;9.30;;;;;;;0.48;100.00;95281.94;5072959;28;20501;-72
2021/12/08 11:32:07;;;;;;;8.40;7.43;;;;;;;0.57;100.00;95288.78;5074173;28;20472;-72
2021/12/08 11:34:40;;;;;;;11.73;9.50;;;;;;;0.51;100.00;95282.13;5074876;28;20512;-74
2021/12/08 11:37:32;;;;;;;10.47;7.63;;;;;;;0.34;100.00;95278.56;5081099;28;20474;-74
2021/12/08 11:40:01;;;;;;;11.70;8.50;;;;;;;0.40;100.00;95291.19;5074455;28;20416;-73
2021/12/08 11:42:35;;;;;;;9.87;8.47;;;;;;;0.17;100.00;95250.53;5074653;28;20448;-74
2021/12/08 11:45:13;;;;;;;12.50;9.20;;;;;;;0.28;100.00;95264.88;5073341;28;20499;-74
2021/12/08 11:47:41;;;;;;;15.43;8.60;;;;;;;0.53;100.00;95277.41;5076768;28;20427;-74
2021/12/08 11:50:12;;;;;;;13.90;8.53;;;;;;;0.20;100.00;95237.72;5075564;28;20448;-73
2021/12/08 11:52:40;;;;;;;12.50;8.00;;;;;;;0.55;100.00;95275.31;5075617;28;21013;-74
2021/12/08 11:55:12;;;;;;;10.47;8.77;;;;;;;0.29;100.00;95237.84;5058055;28;20432;-74
2021/12/08 11:57:44;;;;;;;9.57;8.50;;;;;;;0.70;100.00;95281.28;5075401;28;20417;-73
2021/12/08 12:00:19;;;;;;;12.83;7.00;;;;;;;0.69;100.00;95280.53;5073132;28;20523;-73
2021/12/08 12:03:00;;;;;;;17.03;10.17;;;;;;;0.64;100.00;95274.63;5072840;28;20513;-73
2021/12/08 12:05:33;;;;;;;13.30;9.60;;;;;;;0.56;100.00;95273.47;5074537;28;20437;-73
2021/12/08 12:08:02;;;;;;;12.00;9.00;;;;;;;0.10;100.00;95226.72;5073141;28;20498;-72
2021/12/08 12:10:31;;;;;;;13.43;11.07;;;;;;;0.26;100.00;95202.00;5073954;28;20452;-72
2021/12/08 12:12:59;;;;;;;12.53;8.97;;;;;;;0.36;100.00;95235.59;5074056;28;20481;-72
2021/12/08 12:15:26;;;;;;;9.57;8.70;;;;;;;0.28;100.00;95225.91;5073707;28;20928;-72
2021/12/08 12:17:53;;;;;;;13.47;9.90;;;;;;;0.43;100.00;95237.84;5090584;28;20440;-73
2021/12/08 12:20:44;;;;;;;12.87;9.50;;;;;;;0.35;100.00;95244.47;5073874;28;20490;-73
2021/12/08 12:23:48;;;;;;;11.27;10.10;;;;;;;0.52;100.00;95243.91;5073753;28;20471;-72
2021/12/08 12:26:59;;;;;;;14.87;10.63;;;;;;;0.44;100.00;95249.78;5073620;28;20412;-73
2021/12/08 12:30:04;;;;;;;14.57;10.47;;;;;;;0.40;100.00;95249.59;5034097;28;20457;-74
2021/12/08 12:32:42;;;;;;;14.60;10.20;;;;;;;0.48;100.00;95261.13;5074796;28;20494;-76
2021/12/08 12:35:29;;;;;;;16.30;10.10;;;;;;;0.54;100.00;95263.38;5059030;28;20428;-75
2021/12/08 12:38:08;;;;;;;13.50;8.83;;;;;;;0.31;100.00;95256.50;5057382;28;20496;-75